Archival Weather

Southern Wisconsin Rgnl

Janesville, Wisconsin (KJVL)

Report from: Tuesday, June 6, 2023 3:35 AM CDT
Current time: Monday, June 17, 2024 4:56 AM CDT

Current weather – Weather history – Daily summaries
Weather forecast

Temperature17.0°C (62.6°F)
Dew point7.0°C (44.6°F)
Winds 4 kts (2.1 m/s, 4.6 mph) East (80°)
Visibility10 mi. (16.1 km)
Clouds Scattered clouds 12,000 ft. (3,658 m)
Altimeter30.01 in.Hg (1016 mB)
Relative humidity52 %
Density altitude280 ft. (85 m)
Remarks Fully automated report
Automated weather observing station with precipitation discriminator
Flight conditions Visual Meteorological Conditions
Raw dataKJVL 060835Z AUTO 08004KT 10SM SCT120 17/07 A3001 RMK AO2
An error has occurred. This application may no longer respond until reloaded. Reload 🗙